createdAt,value
2019-05-15T00:00:28.816Z,6.33
2019-05-15T00:05:34.642Z,6.29
2019-05-15T00:10:41.487Z,6.17
2019-05-15T00:15:48.449Z,6.17
2019-05-15T00:20:55.453Z,6.10
2019-05-15T00:26:02.502Z,5.97
2019-05-15T00:31:09.565Z,5.97
2019-05-15T00:36:19.011Z,5.86
2019-05-15T00:41:24.298Z,5.86
2019-05-15T00:46:31.398Z,5.81
2019-05-15T00:51:39.058Z,5.74
2019-05-15T00:56:48.373Z,5.68
2019-05-15T01:01:55.422Z,5.61
2019-05-15T01:07:01.272Z,5.57
2019-05-15T01:12:09.418Z,5.50
2019-05-15T01:17:15.302Z,5.48
2019-05-15T01:22:22.441Z,5.46
2019-05-15T01:27:29.142Z,5.42
2019-05-15T01:32:36.426Z,5.38
2019-05-15T01:37:42.265Z,5.35
2019-05-15T01:42:50.025Z,5.31
2019-05-15T01:47:58.490Z,5.26
2019-05-15T01:53:05.039Z,5.22
2019-05-15T01:58:12.389Z,5.21
2019-05-15T02:03:18.634Z,5.17
2019-05-15T02:08:25.435Z,5.15
2019-05-15T02:13:32.440Z,5.13
2019-05-15T02:18:39.463Z,5.09
2019-05-15T02:23:48.151Z,5.04
2019-05-15T02:28:56.410Z,5.02
2019-05-15T02:34:03.408Z,5.02
2019-05-15T02:39:10.567Z,5.00
2019-05-15T02:44:19.956Z,4.99
2019-05-15T02:49:30.439Z,4.96
2019-05-15T02:54:40.019Z,4.94
2019-05-15T02:59:49.817Z,4.94
2019-05-15T03:04:59.538Z,4.93
2019-05-15T03:10:09.183Z,4.92
2019-05-15T03:15:15.459Z,4.92
2019-05-15T03:20:22.577Z,4.93
2019-05-15T03:25:30.743Z,4.94
2019-05-15T03:31:06.856Z,4.96
2019-05-15T03:35:46.436Z,5.00
2019-05-15T03:40:52.284Z,5.00
2019-05-15T03:46:01.528Z,5.04
2019-05-15T03:51:09.272Z,5.07
2019-05-15T03:56:15.330Z,5.11
2019-05-15T04:01:33.961Z,5.23
2019-05-15T04:06:30.315Z,5.31
2019-05-15T04:11:38.759Z,5.41
2019-05-15T04:16:49.387Z,5.52
2019-05-15T04:21:54.289Z,5.54
2019-05-15T04:27:07.149Z,5.62
2019-05-15T04:32:13.687Z,5.62
2019-05-15T04:37:20.448Z,5.81
2019-05-15T04:42:29.961Z,5.81
2019-05-15T04:47:39.589Z,5.98
2019-05-15T04:52:45.451Z,6.07
2019-05-15T04:57:52.434Z,6.25
2019-05-15T05:03:00.062Z,6.44
2019-05-15T05:08:09.306Z,6.64
2019-05-15T05:13:19.420Z,6.87
2019-05-15T05:18:25.427Z,6.99
2019-05-15T05:23:32.440Z,7.15
2019-05-15T05:28:39.447Z,7.34
2019-05-15T05:33:48.759Z,7.55
2019-05-15T05:38:55.674Z,7.69
2019-05-15T05:44:03.531Z,7.78
2019-05-15T05:49:10.489Z,7.92
2019-05-15T05:54:18.165Z,7.92
2019-05-15T05:59:28.392Z,8.13
2019-05-15T06:04:38.436Z,8.23
2019-05-15T06:09:48.519Z,8.46
2019-05-15T06:14:58.055Z,8.87
2019-05-15T06:20:07.948Z,8.87
2019-05-15T06:25:19.520Z,9.11
2019-05-15T06:30:30.693Z,9.30
2019-05-15T06:35:39.445Z,9.47
2019-05-15T06:40:48.523Z,9.64
2019-05-15T06:45:55.218Z,9.87
2019-05-15T06:51:02.442Z,9.91
2019-05-15T06:56:09.271Z,10.01
2019-05-15T07:01:18.900Z,10.07
2019-05-15T07:06:24.334Z,10.43
2019-05-15T07:11:31.411Z,10.80
2019-05-15T07:16:38.969Z,11.12
2019-05-15T07:21:45.693Z,11.32
2019-05-15T07:26:52.953Z,11.74
2019-05-15T07:31:58.710Z,11.74
2019-05-15T07:37:05.532Z,11.93
2019-05-15T07:42:12.451Z,11.93
2019-05-15T07:47:19.277Z,12.16
2019-05-15T07:52:28.635Z,12.07
2019-05-15T07:57:35.423Z,12.07
2019-05-15T08:02:42.449Z,12.49
2019-05-15T08:07:49.450Z,12.89
2019-05-15T08:12:58.124Z,13.16
2019-05-15T08:18:09.888Z,13.39
2019-05-15T08:23:14.826Z,13.46
2019-05-15T08:28:21.658Z,13.39
2019-05-15T08:33:29.574Z,13.61
2019-05-15T08:38:38.373Z,14.04
2019-05-15T08:43:45.434Z,14.04
2019-05-15T08:48:52.450Z,14.47
2019-05-15T08:53:59.456Z,14.59
2019-05-15T08:59:08.701Z,14.93
2019-05-15T09:04:30.181Z,15.39
2019-05-15T09:09:25.529Z,15.58
2019-05-15T09:14:32.588Z,15.96
2019-05-15T09:19:39.454Z,15.74
2019-05-15T09:24:48.658Z,15.74
2019-05-15T09:29:55.456Z,15.84
2019-05-15T09:35:02.454Z,15.57
2019-05-15T09:40:12.529Z,15.20
2019-05-15T09:45:21.573Z,14.98
2019-05-15T09:50:28.452Z,15.11
2019-05-15T09:55:37.999Z,15.11
2019-05-15T10:00:44.429Z,15.07
2019-05-15T10:05:51.922Z,15.08
2019-05-15T10:10:59.524Z,15.31
2019-05-15T10:16:08.356Z,15.38
2019-05-15T10:21:18.609Z,15.60
2019-05-15T10:26:28.552Z,15.60
2019-05-15T10:31:35.637Z,15.21
2019-05-15T10:36:43.675Z,15.06
2019-05-15T10:41:51.920Z,15.22
2019-05-15T10:47:01.277Z,15.22
2019-05-15T10:52:11.171Z,15.33
2019-05-15T10:57:18.889Z,15.24
2019-05-15T11:02:28.847Z,15.28
2019-05-15T11:07:39.376Z,15.39
2019-05-15T11:12:47.303Z,15.29
2019-05-15T11:17:58.432Z,15.59
2019-05-15T11:23:08.279Z,15.50
2019-05-15T11:28:15.564Z,15.13
2019-05-15T11:33:22.481Z,15.53
2019-05-15T11:38:29.530Z,15.53
2019-05-15T11:43:38.495Z,16.03
2019-05-15T11:48:45.446Z,16.03
2019-05-15T11:53:52.461Z,15.94
2019-05-15T11:58:59.438Z,15.96
2019-05-15T12:04:09.038Z,16.04
2019-05-15T12:09:15.441Z,16.81
2019-05-15T12:14:22.525Z,16.92
2019-05-15T12:19:29.551Z,16.65
2019-05-15T12:24:40.244Z,16.28
2019-05-15T12:29:49.291Z,15.99
2019-05-15T12:35:00.036Z,15.99
2019-05-15T13:00:43.074Z,15.03
2019-05-15T13:05:50.416Z,14.55
2019-05-15T13:10:57.580Z,13.89
2019-05-15T13:16:04.598Z,13.25
2019-05-15T13:21:11.451Z,12.82
2019-05-15T13:26:26.154Z,12.82
2019-05-15T13:32:19.579Z,12.39
2019-05-15T13:37:30.852Z,12.23
2019-05-15T13:42:39.051Z,12.11
2019-05-15T13:47:46.408Z,12.21
2019-05-15T13:52:53.440Z,12.51
2019-05-15T13:58:00.453Z,12.87
2019-05-15T14:03:09.119Z,13.20
2019-05-15T14:08:18.054Z,13.46
2019-05-15T14:13:28.400Z,13.65
2019-05-15T14:18:34.574Z,14.18
2019-05-15T15:28:08.054Z,14.85
2019-05-15T15:33:14.423Z,14.85
2019-05-15T15:38:36.539Z,14.74
2019-05-15T15:43:30.442Z,14.78
2019-05-15T15:52:48.785Z,14.51
2019-05-15T15:57:55.444Z,14.57
2019-05-15T16:03:02.458Z,14.46
2019-05-15T16:08:09.429Z,14.46
2019-05-15T16:13:18.719Z,14.23
2019-05-15T16:18:25.437Z,14.24
2019-05-15T16:23:32.444Z,14.22
2019-05-15T16:28:39.493Z,13.99
2019-05-15T16:33:48.060Z,13.78
2019-05-15T16:39:05.058Z,13.66
2019-05-15T16:44:04.434Z,13.59
2019-05-15T16:49:11.453Z,13.40
2019-05-15T16:54:18.435Z,13.21
2019-05-15T16:59:25.452Z,13.12
2019-05-15T17:04:32.450Z,13.03
2019-05-15T17:09:39.469Z,12.88
2019-05-15T17:14:48.611Z,12.64
2019-05-15T17:19:57.585Z,12.55
2019-05-15T17:25:04.468Z,12.55
2019-05-15T17:30:12.103Z,12.37
2019-05-15T17:35:19.565Z,11.47
2019-05-15T17:40:28.381Z,11.47
2019-05-15T17:45:34.314Z,11.02
2019-05-15T17:50:48.636Z,10.74
2019-05-15T17:55:50.433Z,10.69
2019-05-15T18:00:59.518Z,10.74
2019-05-15T18:06:07.073Z,10.81
2019-05-15T18:11:14.429Z,10.88
2019-05-15T18:16:22.447Z,10.96
2019-05-15T18:21:30.562Z,10.98
2019-05-15T18:26:38.732Z,11.05
2019-05-15T18:31:48.008Z,11.09
2019-05-15T18:36:57.741Z,11.06
2019-05-15T18:42:04.440Z,11.06
2019-05-15T18:52:08.798Z,10.99
2019-05-15T18:57:16.071Z,11.08
2019-05-15T19:02:23.482Z,11.07
2019-05-15T19:07:30.644Z,11.05
2019-05-15T19:12:37.998Z,10.97
2019-05-15T19:17:47.372Z,10.97
2019-05-15T19:22:54.433Z,10.98
2019-05-15T19:28:01.466Z,10.99
2019-05-15T19:33:08.449Z,11.01
2019-05-15T19:38:15.457Z,11.04
2019-05-15T19:43:22.473Z,11.04
2019-05-15T19:48:29.458Z,11.03
2019-05-15T19:53:36.462Z,11.03
2019-05-15T20:01:35.621Z,10.92
2019-05-15T20:06:42.509Z,10.98
2019-05-15T20:11:49.609Z,10.98
2019-05-15T20:16:58.790Z,10.96
2019-05-15T20:22:07.879Z,10.96
2019-05-15T20:27:14.457Z,10.94
2019-05-15T20:33:28.420Z,10.90
2019-05-15T20:38:35.438Z,11.86
2019-05-15T20:43:42.475Z,11.19
2019-05-15T20:48:49.454Z,11.09
2019-05-15T20:53:59.501Z,11.02
2019-05-15T20:59:08.707Z,11.02
2019-05-15T21:04:22.540Z,11.05
2019-05-15T21:09:24.452Z,11.00
2019-05-15T21:14:31.468Z,11.02
2019-05-15T21:19:38.657Z,10.99
2019-05-15T21:24:45.648Z,10.98
2019-05-15T21:29:52.586Z,11.00
2019-05-15T21:34:59.666Z,11.00
2019-05-15T21:40:08.445Z,10.96
2019-05-15T21:45:17.792Z,10.96
2019-05-15T21:50:24.591Z,10.98
2019-05-15T21:55:31.578Z,11.02
2019-05-15T22:00:43.577Z,10.98
2019-05-15T22:05:50.598Z,11.03
2019-05-15T22:10:57.699Z,11.03
2019-05-15T22:16:04.787Z,11.03
2019-05-15T22:21:11.593Z,11.03
2019-05-15T22:30:54.579Z,10.84
2019-05-15T22:36:01.454Z,10.86
2019-05-15T22:41:10.593Z,10.76
2019-05-15T22:46:43.392Z,10.76
2019-05-15T22:51:50.473Z,10.63
2019-05-15T22:57:02.314Z,10.38
2019-05-15T23:02:09.692Z,10.06
2019-05-15T23:07:18.574Z,9.62
2019-05-15T23:12:28.610Z,9.62
2019-05-15T23:17:35.699Z,9.50
2019-05-15T23:22:43.267Z,9.44
2019-05-15T23:27:51.675Z,9.40
2019-05-15T23:32:59.297Z,9.41
2019-05-15T23:38:08.467Z,9.41
2019-05-15T23:43:18.981Z,9.39
2019-05-15T23:48:28.430Z,9.39
2019-05-15T23:53:35.464Z,9.41
2019-05-15T23:58:42.474Z,9.44
